Time;durP1;ratioP1;P1;durP2;ratioP2;P2;SDS_P1;SDS_P2;PMS_P1;PMS_P2;Temp;Humidity;BMP_temperature;BMP_pressure;BME280_temperature;BME280_humidity;BME280_pressure;Samples;Min_cycle;Max_cycle;Signal;HPM_P1;HPM_P2
2023/09/21 00:01:00;;;;;;;2.17;1.57;;;16.50;99.90;;;;;;5068103;28;20206;-48
2023/09/21 00:03:29;;;;;;;1.70;1.50;;;16.50;99.90;;;;;;5083472;28;20560;-47
2023/09/21 00:05:56;;;;;;;2.13;1.80;;;16.50;99.90;;;;;;5075463;28;20217;-49
2023/09/21 00:08:24;;;;;;;1.97;1.50;;;16.50;99.90;;;;;;5051138;28;20277;-48
2023/09/21 00:10:51;;;;;;;2.27;1.47;;;16.50;99.90;;;;;;5079512;28;20323;-56
2023/09/21 00:13:18;;;;;;;1.90;1.60;;;16.50;99.90;;;;;;5082541;28;20676;-49
2023/09/21 00:15:45;;;;;;;3.83;1.70;;;16.50;99.90;;;;;;5080597;28;20214;-57
2023/09/21 00:18:13;;;;;;;1.97;1.40;;;16.50;99.90;;;;;;5070004;28;20219;-48
2023/09/21 00:20:48;;;;;;;2.47;1.67;;;16.50;99.90;;;;;;5081245;28;20280;-59
2023/09/21 00:23:16;;;;;;;3.77;1.47;;;16.50;99.90;;;;;;5081811;28;20272;-45
2023/09/21 00:25:43;;;;;;;1.37;1.27;;;16.50;99.90;;;;;;5049930;28;20275;-58
2023/09/21 00:28:12;;;;;;;1.30;1.20;;;16.60;99.90;;;;;;5070360;28;20258;-59
2023/09/21 00:30:39;;;;;;;1.87;1.60;;;16.60;99.90;;;;;;5078887;28;20919;-46
2023/09/21 00:33:07;;;;;;;1.73;1.63;;;16.60;99.90;;;;;;5070212;28;20680;-50
2023/09/21 00:35:39;;;;;;;2.07;1.40;;;16.60;99.90;;;;;;5078714;28;20206;-46
2023/09/21 00:38:09;;;;;;;1.60;1.50;;;16.60;99.90;;;;;;5082180;28;20214;-49
2023/09/21 00:40:38;;;;;;;2.80;1.60;;;16.60;99.90;;;;;;5048369;28;20198;-49
2023/09/21 00:43:06;;;;;;;1.43;1.33;;;16.60;99.90;;;;;;5080044;28;20190;-54
2023/09/21 00:45:36;;;;;;;2.93;1.77;;;16.60;99.90;;;;;;5078086;28;20206;-46
2023/09/21 00:48:04;;;;;;;4.97;1.80;;;16.60;99.90;;;;;;5071245;28;20202;-51
2023/09/21 00:50:32;;;;;;;4.00;1.60;;;16.60;99.90;;;;;;5077724;28;20190;-51
2023/09/21 00:52:59;;;;;;;3.57;1.60;;;16.60;99.90;;;;;;5080898;28;20198;-51
2023/09/21 00:55:30;;;;;;;1.87;1.23;;;16.60;99.90;;;;;;5049017;28;20206;-60
2023/09/21 00:58:03;;;;;;;2.93;1.60;;;16.60;99.90;;;;;;5074231;28;20218;-47
2023/09/21 01:00:30;;;;;;;2.50;1.80;;;16.60;99.90;;;;;;5077742;28;20206;-49
2023/09/21 01:03:00;;;;;;;2.37;1.60;;;16.50;99.90;;;;;;5080950;28;20260;-47
2023/09/21 01:05:29;;;;;;;3.97;1.60;;;16.60;99.90;;;;;;5066274;28;20226;-56
2023/09/21 01:07:58;;;;;;;2.90;1.43;;;16.50;99.90;;;;;;5081949;28;20548;-47
2023/09/21 01:10:25;;;;;;;1.53;1.43;;;16.50;99.90;;;;;;5051706;28;20277;-60
2023/09/21 01:12:53;;;;;;;1.27;1.17;;;16.50;99.90;;;;;;5074142;28;20664;-49
2023/09/21 01:15:21;;;;;;;2.03;1.63;;;16.50;99.90;;;;;;5079094;28;20226;-58
2023/09/21 01:17:48;;;;;;;1.67;1.57;;;16.50;99.90;;;;;;5079541;28;20271;-56
2023/09/21 01:20:22;;;;;;;2.23;1.80;;;16.50;99.90;;;;;;5068583;28;20279;-60
2023/09/21 01:23:08;;;;;;;4.87;1.60;;;16.50;99.90;;;;;;5079378;28;20289;-49
2023/09/21 01:25:39;;;;;;;3.20;1.67;;;16.40;99.90;;;;;;5046810;28;21425;-47
2023/09/21 01:28:07;;;;;;;2.80;1.50;;;16.40;99.90;;;;;;5079749;28;20716;-46
2023/09/21 01:30:34;;;;;;;1.73;1.50;;;16.40;99.90;;;;;;5077854;28;20273;-48
2023/09/21 01:33:04;;;;;;;4.07;1.70;;;16.50;99.90;;;;;;5080648;28;20200;-46
2023/09/21 01:35:34;;;;;;;2.40;1.60;;;16.50;99.90;;;;;;5067361;28;20225;-46
2023/09/21 01:38:02;;;;;;;2.20;1.30;;;16.40;99.90;;;;;;5080249;28;20225;-48
2023/09/21 01:40:29;;;;;;;2.80;1.40;;;16.40;99.90;;;;;;5077645;28;20752;-46
2023/09/21 01:42:58;;;;;;;1.97;1.50;;;16.40;99.90;;;;;;5059501;28;21294;-53
2023/09/21 01:45:26;;;;;;;2.17;1.33;;;16.40;99.90;;;;;;5076457;28;20229;-59
2023/09/21 01:47:53;;;;;;;1.60;1.50;;;16.40;99.90;;;;;;5081667;28;20186;-48
2023/09/21 01:50:21;;;;;;;2.10;1.77;;;16.40;99.90;;;;;;5072965;28;20201;-59
2023/09/21 01:52:48;;;;;;;1.47;1.27;;;16.40;99.90;;;;;;5076705;28;20676;-49
2023/09/21 01:55:16;;;;;;;1.57;1.30;;;16.30;99.90;;;;;;5079594;28;20225;-58
2023/09/21 01:57:44;;;;;;;1.80;1.67;;;16.30;99.90;;;;;;5049833;28;20217;-48
2023/09/21 02:00:21;;;;;;;2.33;1.50;;;16.30;99.90;;;;;;5080074;28;20239;-58
2023/09/21 02:02:48;;;;;;;2.87;1.87;;;16.30;99.90;;;;;;5080906;28;20251;-46
2023/09/21 02:05:15;;;;;;;1.60;1.50;;;16.30;99.90;;;;;;5076986;28;20301;-60
2023/09/21 02:07:43;;;;;;;1.87;1.40;;;16.30;99.90;;;;;;5077542;28;20943;-46
2023/09/21 02:10:11;;;;;;;3.03;1.80;;;16.20;99.90;;;;;;5083655;28;20267;-58
2023/09/21 02:12:39;;;;;;;2.40;1.40;;;16.20;99.90;;;;;;5081157;28;20289;-49
2023/09/21 02:15:10;;;;;;;3.63;1.80;;;16.10;99.90;;;;;;5057175;28;20229;-46
2023/09/21 02:17:40;;;;;;;3.33;1.43;;;16.10;99.90;;;;;;5082127;28;20206;-52
2023/09/21 02:20:13;;;;;;;2.23;1.50;;;16.10;99.90;;;;;;5084990;28;20564;-52
2023/09/21 02:22:42;;;;;;;3.27;1.80;;;16.10;99.90;;;;;;5070774;28;20946;-51
2023/09/21 02:25:11;;;;;;;2.00;1.90;;;16.10;99.90;;;;;;5084642;28;20248;-53
2023/09/21 02:27:38;;;;;;;3.57;1.60;;;16.10;99.90;;;;;;5082008;28;20190;-49
2023/09/21 02:30:06;;;;;;;2.77;1.50;;;16.00;99.90;;;;;;5055543;28;20213;-46
2023/09/21 02:32:34;;;;;;;2.20;1.63;;;16.00;99.90;;;;;;5078993;28;20235;-51
2023/09/21 02:35:03;;;;;;;2.50;1.60;;;16.00;99.90;;;;;;5083202;28;20225;-48
2023/09/21 02:37:30;;;;;;;1.63;1.53;;;16.00;99.90;;;;;;5067536;28;20250;-49
2023/09/21 02:39:57;;;;;;;2.40;1.57;;;16.00;99.90;;;;;;5083573;28;20198;-52
2023/09/21 02:42:24;;;;;;;3.33;1.90;;;16.00;99.90;;;;;;5079835;28;20206;-60
2023/09/21 02:44:55;;;;;;;1.97;1.47;;;16.00;99.90;;;;;;5054522;28;20767;-55
2023/09/21 02:47:21;;;;;;;1.50;1.30;;;15.90;99.90;;;;;;5080664;28;20253;-59
2023/09/21 02:49:50;;;;;;;2.20;1.60;;;15.90;99.90;;;;;;5082860;28;20846;-51
2023/09/21 02:52:20;;;;;;;2.13;1.50;;;15.90;99.90;;;;;;5081776;28;20196;-60
2023/09/21 02:54:47;;;;;;;1.67;1.40;;;15.90;99.90;;;;;;5067191;28;20198;-50
2023/09/21 02:57:14;;;;;;;1.90;1.70;;;15.90;99.90;;;;;;5083114;28;20196;-59
2023/09/21 02:59:42;;;;;;;3.13;1.53;;;15.80;99.90;;;;;;5080291;28;20214;-54
2023/09/21 03:02:09;;;;;;;1.97;1.77;;;15.80;99.90;;;;;;5052943;28;20578;-59
2023/09/21 03:04:36;;;;;;;1.60;1.50;;;15.80;99.90;;;;;;5079694;28;20186;-53
2023/09/21 03:07:04;;;;;;;1.93;1.60;;;15.80;99.90;;;;;;5084408;28;20688;-53
2023/09/21 03:09:32;;;;;;;4.80;1.83;;;15.80;99.90;;;;;;5068430;28;20256;-55
2023/09/21 03:11:59;;;;;;;1.50;1.40;;;15.80;99.90;;;;;;5083069;28;20691;-53
2023/09/21 03:14:28;;;;;;;3.63;1.60;;;15.70;99.90;;;;;;5078992;28;20285;-59
2023/09/21 03:16:58;;;;;;;2.03;1.57;;;15.70;99.90;;;;;;5052731;28;20224;-48
2023/09/21 03:19:25;;;;;;;2.23;1.67;;;15.70;99.90;;;;;;5078898;28;20275;-57
2023/09/21 03:21:52;;;;;;;3.23;1.60;;;15.70;99.90;;;;;;5084243;28;20268;-51
2023/09/21 03:24:19;;;;;;;2.40;1.57;;;15.70;99.90;;;;;;5079480;28;20202;-59
2023/09/21 03:26:47;;;;;;;2.63;1.73;;;15.70;99.90;;;;;;5070966;28;20996;-47
2023/09/21 03:29:14;;;;;;;1.80;1.37;;;15.60;99.90;;;;;;5081788;28;20198;-58
2023/09/21 03:31:41;;;;;;;3.20;1.77;;;15.70;99.90;;;;;;5051254;28;20209;-46
2023/09/21 03:34:08;;;;;;;1.93;1.60;;;15.60;99.90;;;;;;5084083;28;20205;-54
2023/09/21 03:36:38;;;;;;;2.43;1.73;;;15.60;99.90;;;;;;5067591;28;20233;-54
2023/09/21 03:39:09;;;;;;;1.73;1.50;;;15.60;99.90;;;;;;5079456;28;21056;-52
2023/09/21 03:41:36;;;;;;;3.23;1.80;;;15.60;99.90;;;;;;5070726;28;20202;-47
2023/09/21 03:44:06;;;;;;;2.53;1.70;;;15.60;99.90;;;;;;5068473;28;20208;-48
2023/09/21 03:46:33;;;;;;;1.53;1.43;;;15.60;99.90;;;;;;5083131;28;20206;-46
2023/09/21 03:49:00;;;;;;;3.20;1.53;;;15.60;99.90;;;;;;5042584;28;20205;-58
2023/09/21 03:51:29;;;;;;;3.90;1.90;;;15.60;99.90;;;;;;5071069;28;20238;-61
2023/09/21 03:53:59;;;;;;;1.63;1.50;;;15.50;99.90;;;;;;5074958;28;20293;-59
2023/09/21 03:56:26;;;;;;;1.87;1.60;;;15.50;99.90;;;;;;5080888;28;20225;-51
2023/09/21 03:58:55;;;;;;;2.90;1.70;;;15.50;99.90;;;;;;5066990;28;20271;-60
2023/09/21 04:01:23;;;;;;;2.40;1.80;;;15.50;99.90;;;;;;5082271;28;20202;-54
2023/09/21 04:03:53;;;;;;;3.10;1.53;;;15.50;99.90;;;;;;5044315;28;20213;-60
2023/09/21 04:06:21;;;;;;;1.67;1.57;;;15.50;99.90;;;;;;5080978;28;20222;-53
2023/09/21 04:08:48;;;;;;;1.90;1.50;;;15.50;99.90;;;;;;5071902;28;20572;-61
2023/09/21 04:11:15;;;;;;;3.07;2.00;;;15.40;99.90;;;;;;5080458;28;20206;-47
2023/09/21 04:13:42;;;;;;;2.00;1.70;;;15.40;99.90;;;;;;5071097;28;20197;-59
2023/09/21 04:16:09;;;;;;;2.87;1.30;;;15.40;99.90;;;;;;5080257;28;21196;-47
2023/09/21 04:18:37;;;;;;;1.90;1.77;;;15.50;99.90;;;;;;5051212;28;20292;-52
2023/09/21 04:21:10;;;;;;;2.80;1.57;;;15.40;99.90;;;;;;5077767;28;20194;-52
2023/09/21 04:23:37;;;;;;;2.23;2.03;;;15.50;99.90;;;;;;5075140;28;20194;-55
2023/09/21 04:26:06;;;;;;;3.00;1.50;;;15.40;99.90;;;;;;5077617;28;20267;-46
2023/09/21 04:28:33;;;;;;;2.23;1.80;;;15.50;99.90;;;;;;5068595;28;20202;-46
2023/09/21 04:31:01;;;;;;;2.17;1.90;;;15.50;99.90;;;;;;5077844;28;20233;-49
2023/09/21 04:33:28;;;;;;;2.53;1.60;;;15.50;99.90;;;;;;5081139;28;20263;-46
2023/09/21 04:35:56;;;;;;;3.43;1.53;;;15.50;99.90;;;;;;5047611;28;20704;-58
2023/09/21 04:38:23;;;;;;;3.50;1.80;;;15.50;99.90;;;;;;5069501;28;20206;-48
2023/09/21 04:40:51;;;;;;;2.80;1.80;;;15.50;99.90;;;;;;5078663;28;20679;-58
2023/09/21 04:43:18;;;;;;;3.40;1.93;;;15.50;99.90;;;;;;5069771;28;20300;-49
2023/09/21 04:45:48;;;;;;;1.97;1.70;;;15.60;99.90;;;;;;5066393;28;20228;-59
2023/09/21 04:48:15;;;;;;;2.37;1.90;;;15.60;99.90;;;;;;5058181;28;20212;-55
2023/09/21 04:50:43;;;;;;;3.30;1.97;;;15.60;99.90;;;;;;5048966;28;20213;-49
2023/09/21 04:53:11;;;;;;;3.07;1.77;;;15.60;99.90;;;;;;5068221;28;20605;-57
2023/09/21 04:55:38;;;;;;;1.87;1.70;;;15.60;99.90;;;;;;5080411;28;20296;-47
2023/09/21 04:58:06;;;;;;;2.47;1.70;;;15.60;99.90;;;;;;5075007;28;20214;-57
2023/09/21 05:00:33;;;;;;;1.70;1.60;;;15.60;99.90;;;;;;5069545;28;20217;-45
2023/09/21 05:03:00;;;;;;;2.93;1.60;;;15.60;99.90;;;;;;5080061;28;20201;-57
2023/09/21 05:05:27;;;;;;;1.83;1.73;;;15.60;99.90;;;;;;5042717;28;20800;-51
2023/09/21 05:07:54;;;;;;;3.37;2.07;;;15.60;99.90;;;;;;5080260;28;20194;-48
2023/09/21 05:10:22;;;;;;;2.53;1.90;;;15.60;99.90;;;;;;5069957;28;20221;-49
2023/09/21 05:12:51;;;;;;;1.67;1.57;;;15.60;99.90;;;;;;5081773;28;20270;-54
2023/09/21 05:15:18;;;;;;;2.97;2.00;;;15.60;99.90;;;;;;5066442;28;22238;-45
2023/09/21 05:17:45;;;;;;;4.03;1.90;;;15.60;99.90;;;;;;5072383;28;20194;-49
2023/09/21 05:20:12;;;;;;;5.07;2.13;;;15.60;99.90;;;;;;5042045;28;20222;-48
2023/09/21 05:22:40;;;;;;;2.47;1.90;;;15.70;99.90;;;;;;5069474;28;20197;-45
2023/09/21 05:25:07;;;;;;;2.30;1.90;;;15.70;99.90;;;;;;5070506;28;20198;-60
2023/09/21 05:27:36;;;;;;;2.10;1.97;;;15.70;99.90;;;;;;5079469;28;20628;-53
2023/09/21 05:30:04;;;;;;;3.60;2.07;;;15.80;99.90;;;;;;5078941;28;20190;-55
2023/09/21 05:32:32;;;;;;;3.57;1.90;;;15.80;99.90;;;;;;5066046;28;20197;-51
2023/09/21 05:34:59;;;;;;;2.27;1.70;;;15.80;99.90;;;;;;5074215;28;20661;-50
2023/09/21 05:37:26;;;;;;;4.87;1.73;;;15.80;99.90;;;;;;5037618;28;20293;-61
2023/09/21 05:39:53;;;;;;;2.93;1.83;;;15.80;99.90;;;;;;5081281;28;20736;-47
2023/09/21 05:42:22;;;;;;;2.53;1.80;;;15.80;99.90;;;;;;5084145;28;20197;-57
2023/09/21 05:44:51;;;;;;;2.20;1.60;;;15.80;99.90;;;;;;5085306;28;20194;-45
2023/09/21 05:47:19;;;;;;;2.47;1.60;;;15.80;99.90;;;;;;5073186;28;20206;-58
2023/09/21 05:49:46;;;;;;;2.10;1.73;;;15.80;99.90;;;;;;5084626;28;20261;-46
2023/09/21 05:52:13;;;;;;;2.97;1.80;;;15.80;99.90;;;;;;5056917;28;20225;-58
2023/09/21 05:54:40;;;;;;;2.50;2.03;;;15.80;99.90;;;;;;5073854;28;20280;-45
2023/09/21 05:57:07;;;;;;;4.60;2.10;;;15.80;99.90;;;;;;5085954;28;20217;-47
2023/09/21 05:59:34;;;;;;;1.90;1.73;;;15.90;99.90;;;;;;5074999;28;20221;-45
2023/09/21 06:02:03;;;;;;;5.30;1.90;;;15.90;99.90;;;;;;5075201;28;20601;-53
2023/09/21 06:04:30;;;;;;;3.00;1.70;;;15.90;99.90;;;;;;5080786;28;20400;-48
2023/09/21 06:06:58;;;;;;;1.60;1.50;;;16.00;99.90;;;;;;5056764;28;20221;-51
2023/09/21 06:09:25;;;;;;;2.87;2.20;;;16.00;99.90;;;;;;5073486;28;20910;-58
2023/09/21 06:11:52;;;;;;;1.80;1.70;;;16.10;99.90;;;;;;5084488;28;20202;-45
2023/09/21 06:14:20;;;;;;;2.10;1.90;;;16.10;99.90;;;;;;5083511;28;20231;-57
2023/09/21 06:16:47;;;;;;;1.97;1.77;;;16.20;99.90;;;;;;5073395;28;20225;-52
2023/09/21 06:19:15;;;;;;;2.07;1.93;;;16.20;99.90;;;;;;5084553;28;20202;-58
2023/09/21 06:21:42;;;;;;;1.80;1.70;;;16.30;99.90;;;;;;5055335;28;20213;-52
2023/09/21 06:24:10;;;;;;;2.93;2.27;;;16.30;99.90;;;;;;5085027;28;20194;-52
2023/09/21 06:26:38;;;;;;;2.40;2.10;;;16.40;99.90;;;;;;5072871;28;20986;-50
2023/09/21 06:29:05;;;;;;;1.70;1.60;;;16.50;99.90;;;;;;5085472;28;20198;-50
2023/09/21 06:31:32;;;;;;;1.60;1.50;;;16.60;99.90;;;;;;5070582;28;20202;-47
2023/09/21 06:33:59;;;;;;;1.90;1.70;;;16.60;99.90;;;;;;5082114;28;20190;-47
2023/09/21 06:36:28;;;;;;;2.73;1.80;;;16.70;99.90;;;;;;5080087;28;20222;-57
2023/09/21 06:38:56;;;;;;;1.93;1.77;;;16.80;99.90;;;;;;5055736;28;20213;-45
2023/09/21 06:41:23;;;;;;;3.77;1.90;;;16.90;99.90;;;;;;5075938;28;20230;-59
2023/09/21 06:43:51;;;;;;;2.67;2.10;;;16.90;99.90;;;;;;5082097;28;20198;-47
2023/09/21 06:46:18;;;;;;;5.23;2.20;;;17.00;99.90;;;;;;5070742;28;20226;-59
2023/09/21 06:48:45;;;;;;;1.53;1.43;;;17.00;99.90;;;;;;5076427;28;20247;-48
2023/09/21 06:51:13;;;;;;;1.87;1.57;;;17.10;99.90;;;;;;5075868;28;20737;-57
2023/09/21 06:53:57;;;;;;;4.47;1.67;;;17.20;99.90;;;;;;5051066;28;20209;-46
2023/09/21 06:56:51;;;;;;;2.70;1.80;;;17.20;99.90;;;;;;5081974;28;20309;-46
2023/09/21 06:59:19;;;;;;;2.83;1.70;;;17.30;99.90;;;;;;5073278;28;20829;-59
2023/09/21 07:01:48;;;;;;;2.60;1.90;;;17.40;99.90;;;;;;5083307;28;20197;-51
2023/09/21 07:04:17;;;;;;;1.90;1.70;;;17.50;99.90;;;;;;5072867;28;20633;-56
2023/09/21 07:06:50;;;;;;;2.03;1.73;;;17.60;99.90;;;;;;5074031;28;20291;-45
2023/09/21 07:09:23;;;;;;;2.70;2.03;;;17.70;99.90;;;;;;5052515;28;20198;-52
2023/09/21 07:12:17;;;;;;;2.70;1.93;;;17.70;99.90;;;;;;5083962;28;20660;-44
2023/09/21 07:17:50;;;;;;;2.13;1.70;;;17.90;99.90;;;;;;5018565;28;23764;-47
2023/09/21 07:20:23;;;;;;;3.70;1.60;;;18.00;99.90;;;;;;5082721;28;20221;-54
2023/09/21 07:23:07;;;;;;;3.87;1.70;;;18.10;99.90;;;;;;5073263;28;20673;-46
2023/09/21 07:25:42;;;;;;;3.47;2.33;;;18.20;99.90;;;;;;5051905;28;20220;-44
2023/09/21 07:28:12;;;;;;;2.97;1.70;;;18.30;99.90;;;;;;5079649;28;20284;-56
2023/09/21 07:30:46;;;;;;;2.10;1.70;;;18.40;99.90;;;;;;5073223;28;20777;-45
2023/09/21 07:33:13;;;;;;;3.80;2.07;;;18.40;99.90;;;;;;5082054;28;20247;-57
2023/09/21 07:35:50;;;;;;;2.73;2.23;;;18.50;99.90;;;;;;5073686;28;20969;-46
2023/09/21 07:38:19;;;;;;;2.30;2.10;;;18.60;99.90;;;;;;5072243;28;20274;-55
2023/09/21 07:41:01;;;;;;;3.17;1.90;;;18.70;99.90;;;;;;5051991;28;20229;-46
2023/09/21 07:43:40;;;;;;;2.17;1.97;;;18.80;99.90;;;;;;5071694;28;20730;-46
2023/09/21 07:46:16;;;;;;;2.13;1.90;;;18.90;99.90;;;;;;5079358;28;20779;-54
2023/09/21 07:48:48;;;;;;;4.13;1.90;;;19.00;99.90;;;;;;5082007;28;20963;-49
2023/09/21 07:51:16;;;;;;;2.17;1.90;;;19.00;99.90;;;;;;5072478;28;20672;-55
2023/09/21 07:53:49;;;;;;;1.87;1.67;;;19.10;99.90;;;;;;5072864;28;20844;-51
2023/09/21 07:56:18;;;;;;;2.60;1.57;;;19.20;99.90;;;;;;5068575;28;20230;-56
2023/09/21 07:58:59;;;;;;;3.00;2.00;;;19.30;99.90;;;;;;5067925;28;20190;-45
2023/09/21 08:01:27;;;;;;;3.13;2.00;;;19.40;99.90;;;;;;5066299;28;20296;-56
2023/09/21 08:04:00;;;;;;;4.30;1.73;;;19.40;99.90;;;;;;5082583;28;20194;-51
2023/09/21 08:06:33;;;;;;;1.93;1.50;;;19.60;99.90;;;;;;5068245;28;20275;-45
2023/09/21 08:09:09;;;;;;;2.30;1.63;;;19.70;99.90;;;;;;5073485;28;20209;-47
2023/09/21 08:11:45;;;;;;;2.97;1.57;;;19.80;99.90;;;;;;5049152;28;21493;-45
2023/09/21 08:14:13;;;;;;;3.70;2.10;;;19.90;99.90;;;;;;5081017;28;20202;-57
2023/09/21 08:16:45;;;;;;;3.57;1.80;;;19.90;99.90;;;;;;5068426;28;20233;-48
2023/09/21 08:19:13;;;;;;;3.73;1.80;;;20.00;99.90;;;;;;5082469;28;20198;-55
2023/09/21 08:21:51;;;;;;;2.63;1.83;;;20.10;99.90;;;;;;5070281;28;20229;-46
2023/09/21 08:24:21;;;;;;;1.93;1.70;;;20.10;99.90;;;;;;5075100;28;20617;-56
2023/09/21 08:26:56;;;;;;;2.47;1.83;;;20.20;99.90;;;;;;5078566;28;20209;-48
2023/09/21 08:29:24;;;;;;;2.40;1.60;;;20.30;99.90;;;;;;5050254;28;20284;-53
2023/09/21 08:32:00;;;;;;;4.43;1.90;;;20.30;99.90;;;;;;5073588;28;20214;-47
2023/09/21 08:34:33;;;;;;;4.03;1.70;;;20.40;99.90;;;;;;5079128;28;20190;-45
2023/09/21 08:37:06;;;;;;;2.40;1.80;;;20.50;99.90;;;;;;5072406;28;20228;-52
2023/09/21 08:42:42;;;;;;;2.17;1.70;;;20.70;99.90;;;;;;5040098;28;20219;-49
2023/09/21 08:45:11;;;;;;;2.27;1.60;;;20.80;99.90;;;;;;5082124;28;20213;-54
2023/09/21 08:47:51;;;;;;;3.13;1.80;;;21.00;99.90;;;;;;5069855;28;20189;-46
2023/09/21 08:50:19;;;;;;;2.50;1.97;;;21.10;99.90;;;;;;5081173;28;20676;-57
2023/09/21 08:52:53;;;;;;;3.10;1.90;;;21.20;99.90;;;;;;5071278;28;20194;-45
2023/09/21 08:55:22;;;;;;;2.83;1.60;;;21.30;99.90;;;;;;5073992;28;20205;-52
2023/09/21 08:57:56;;;;;;;4.10;1.83;;;21.40;99.90;;;;;;5079373;28;20206;-44
2023/09/21 09:00:34;;;;;;;2.13;1.70;;;21.40;99.90;;;;;;5048111;28;20225;-46
2023/09/21 09:03:02;;;;;;;2.67;1.93;;;21.40;99.90;;;;;;5074018;28;20290;-50
2023/09/21 09:05:31;;;;;;;2.50;1.30;;;21.50;99.90;;;;;;5079603;28;20214;-44
2023/09/21 09:08:01;;;;;;;3.00;1.77;;;21.70;99.90;;;;;;5070837;28;20328;-45
2023/09/21 09:10:31;;;;;;;1.90;1.23;;;21.70;99.90;;;;;;5079030;28;20186;-51
2023/09/21 09:13:07;;;;;;;3.13;1.70;;;21.70;99.90;;;;;;5073049;28;20259;-48
2023/09/21 09:15:52;;;;;;;5.07;2.10;;;21.70;99.90;;;;;;5048731;28;20248;-45
2023/09/21 09:18:26;;;;;;;1.58;1.48;;;21.70;99.90;;;;;;5058756;28;20236;-50
2023/09/21 09:20:57;;;;;;;2.90;1.80;;;21.70;99.90;;;;;;5077045;28;20217;-50
2023/09/21 09:23:30;;;;;;;1.90;1.80;;;21.60;99.90;;;;;;5069530;28;20209;-46
2023/09/21 09:26:11;;;;;;;2.08;1.88;;;21.60;99.90;;;;;;5071152;28;20266;-45
2023/09/21 09:28:40;;;;;;;1.85;1.58;;;21.60;99.90;;;;;;5071567;28;20194;-49
2023/09/21 09:31:11;;;;;;;1.98;1.80;;;21.70;99.90;;;;;;5050015;28;20206;-45
2023/09/21 09:33:39;;;;;;;1.73;1.50;;;21.80;99.90;;;;;;5072048;28;20206;-51
2023/09/21 09:36:09;;;;;;;2.55;1.58;;;22.00;99.90;;;;;;5079699;28;20288;-45
2023/09/21 09:38:37;;;;;;;2.38;1.63;;;22.10;99.90;;;;;;5080476;28;20277;-56
2023/09/21 09:41:13;;;;;;;2.53;1.60;;;22.20;99.90;;;;;;5061239;28;20241;-49
2023/09/21 09:43:51;;;;;;;4.78;1.70;;;22.40;99.90;;;;;;5071384;28;20209;-51
2023/09/21 09:46:23;;;;;;;1.80;1.70;;;22.50;99.90;;;;;;5043278;28;20197;-49
2023/09/21 09:48:54;;;;;;;3.17;1.80;;;22.50;99.90;;;;;;5072870;28;20247;-51
2023/09/21 09:51:44;;;;;;;5.05;1.50;;;22.60;99.90;;;;;;5079231;28;20178;-52
2023/09/21 09:54:13;;;;;;;1.73;1.52;;;22.60;99.90;;;;;;5069486;28;20221;-45
2023/09/21 09:56:54;;;;;;;1.80;1.70;;;22.70;99.90;;;;;;5082553;28;20257;-53
2023/09/21 09:59:31;;;;;;;5.78;1.75;;;22.80;99.90;;;;;;5069286;28;20190;-54
2023/09/21 10:02:00;;;;;;;2.15;1.60;;;22.90;99.90;;;;;;5043211;28;20210;-45
2023/09/21 10:04:36;;;;;;;3.33;1.67;;;23.00;99.90;;;;;;5070960;28;20190;-51
2023/09/21 10:07:08;;;;;;;3.03;1.40;;;23.10;99.90;;;;;;5072546;28;20226;-47
2023/09/21 10:09:40;;;;;;;1.67;1.58;;;23.20;99.90;;;;;;5070119;28;20807;-52
2023/09/21 10:12:08;;;;;;;2.45;1.75;;;23.30;99.90;;;;;;5080227;28;20190;-46
2023/09/21 10:14:43;;;;;;;2.47;1.63;;;23.40;99.90;;;;;;5072242;28;20194;-53
2023/09/21 10:17:13;;;;;;;2.03;1.60;;;23.50;99.90;;;;;;5045657;28;20213;-50
2023/09/21 10:19:43;;;;;;;2.65;1.67;;;23.60;99.90;;;;;;5079989;28;20226;-53
2023/09/21 10:22:23;;;;;;;1.92;1.60;;;23.70;99.90;;;;;;5069817;28;20190;-46
2023/09/21 10:24:51;;;;;;;2.22;1.45;;;23.70;99.90;;;;;;5078267;28;20272;-50
2023/09/21 10:27:37;;;;;;;1.70;1.50;;;23.80;99.90;;;;;;5069178;28;20194;-48
2023/09/21 10:30:15;;;;;;;2.88;1.50;;;23.80;99.90;;;;;;5072300;28;20194;-49
2023/09/21 10:32:48;;;;;;;1.70;1.60;;;23.90;99.90;;;;;;5051760;28;20200;-50
2023/09/21 10:35:54;;;;;;;1.83;1.40;;;24.10;99.90;;;;;;5072716;28;20221;-50
2023/09/21 10:38:38;;;;;;;1.80;1.60;;;24.10;99.90;;;;;;5074432;28;20190;-50
2023/09/21 10:41:42;;;;;;;1.75;1.65;;;24.30;99.90;;;;;;5077820;28;20228;-48
2023/09/21 10:44:13;;;;;;;3.55;1.88;;;24.50;99.90;;;;;;5071184;28;20538;-46
2023/09/21 10:46:45;;;;;;;1.67;1.50;;;24.60;99.90;;;;;;5084936;28;20233;-51
2023/09/21 10:49:19;;;;;;;2.10;1.65;;;24.80;99.90;;;;;;5043285;28;20285;-49
2023/09/21 10:51:49;;;;;;;1.73;1.60;;;24.90;99.90;;;;;;5082714;28;20192;-55
2023/09/21 10:54:19;;;;;;;2.42;1.55;;;25.00;99.90;;;;;;5074830;28;20251;-51
2023/09/21 10:56:53;;;;;;;1.85;1.40;;;25.00;99.70;;;;;;5107191;27;20716;-56
2023/09/21 10:59:35;;;;;;;1.77;1.40;;;25.10;99.60;;;;;;5060837;28;20225;-55
2023/09/21 11:02:05;;;;;;;3.58;1.65;;;25.10;98.90;;;;;;5072129;28;20225;-51
2023/09/21 11:04:33;;;;;;;3.28;1.42;;;25.10;98.60;;;;;;5062418;28;20207;-49
2023/09/21 11:07:00;;;;;;;1.73;1.63;;;25.20;98.60;;;;;;5084130;28;20228;-48
2023/09/21 11:09:31;;;;;;;1.95;1.58;;;25.20;98.20;;;;;;5075873;28;20190;-51
2023/09/21 11:11:58;;;;;;;4.32;1.40;;;25.40;97.90;;;;;;5083190;28;20189;-48
2023/09/21 11:14:26;;;;;;;1.90;1.30;;;25.50;98.20;;;;;;5071670;28;20206;-52
2023/09/21 11:16:56;;;;;;;2.03;1.60;;;25.60;97.70;;;;;;5075407;28;20229;-53
2023/09/21 11:19:26;;;;;;;2.53;1.60;;;25.60;97.20;;;;;;5050001;28;20190;-53
2023/09/21 11:21:57;;;;;;;2.75;1.73;;;25.70;97.10;;;;;;5075372;28;20578;-53
2023/09/21 11:24:29;;;;;;;2.10;1.60;;;25.80;97.00;;;;;;5073414;28;20194;-52
2023/09/21 11:26:58;;;;;;;3.60;1.30;;;25.80;97.30;;;;;;5084874;28;20214;-50
2023/09/21 11:29:27;;;;;;;1.60;1.50;;;25.80;97.60;;;;;;5069484;28;20378;-50
2023/09/21 11:31:55;;;;;;;2.78;1.60;;;25.60;97.60;;;;;;5074959;28;20190;-57
2023/09/21 11:34:25;;;;;;;3.28;1.40;;;25.60;97.80;;;;;;5046094;28;20194;-57
2023/09/21 11:36:51;;;;;;;2.70;1.42;;;25.50;97.00;;;;;;5074752;28;21830;-55
2023/09/21 11:39:22;;;;;;;3.13;1.58;;;25.30;97.00;;;;;;5070296;28;20289;-57
2023/09/21 11:41:52;;;;;;;1.60;1.50;;;25.30;97.10;;;;;;5079346;28;20217;-57
2023/09/21 11:44:19;;;;;;;1.73;1.25;;;25.30;97.20;;;;;;5059828;28;20240;-58
2023/09/21 11:46:48;;;;;;;1.40;1.30;;;25.30;97.80;;;;;;5083470;28;20213;-46
2023/09/21 11:49:17;;;;;;;4.18;1.60;;;25.30;97.60;;;;;;5033037;28;20210;-58
2023/09/21 11:51:47;;;;;;;2.90;1.77;;;25.20;97.70;;;;;;5084125;28;20185;-56
2023/09/21 11:54:13;;;;;;;1.67;1.58;;;25.30;98.00;;;;;;5070128;28;20390;-56
2023/09/21 11:56:42;;;;;;;1.85;1.27;;;25.40;98.30;;;;;;5075999;28;20222;-55
2023/09/21 11:59:09;;;;;;;1.83;1.23;;;25.50;98.40;;;;;;5079902;28;20213;-47
2023/09/21 12:01:35;;;;;;;1.73;1.33;;;25.50;98.60;;;;;;5060523;28;20697;-50
2023/09/21 12:04:04;;;;;;;2.17;1.27;;;25.50;98.30;;;;;;5060531;28;21219;-54
2023/09/21 12:06:32;;;;;;;2.00;1.20;;;25.50;98.30;;;;;;5047187;28;20214;-48
2023/09/21 12:09:00;;;;;;;1.45;1.35;;;25.50;98.10;;;;;;5071374;28;20919;-54
2023/09/21 12:11:27;;;;;;;3.13;1.23;;;25.40;98.20;;;;;;5076069;28;20198;-56
2023/09/21 12:13:55;;;;;;;2.95;1.52;;;25.40;98.00;;;;;;5078142;28;20193;-58
2023/09/21 12:16:21;;;;;;;1.48;1.38;;;25.50;98.10;;;;;;5066432;28;20226;-57
2023/09/21 12:18:48;;;;;;;2.13;1.40;;;25.50;97.90;;;;;;5074517;28;20198;-51
2023/09/21 12:21:18;;;;;;;2.60;1.45;;;25.50;98.30;;;;;;5039596;28;20236;-57
2023/09/21 12:23:46;;;;;;;6.32;1.30;;;25.50;98.50;;;;;;5073733;28;20281;-58
2023/09/21 12:26:14;;;;;;;3.20;1.60;;;25.40;98.60;;;;;;5069829;28;20232;-56
2023/09/21 12:28:42;;;;;;;2.15;1.20;;;25.30;99.10;;;;;;5082108;28;20202;-53
2023/09/21 12:31:09;;;;;;;2.78;1.40;;;25.30;99.20;;;;;;5078306;28;20190;-54
2023/09/21 12:33:36;;;;;;;4.10;1.40;;;25.30;99.30;;;;;;5063350;28;20672;-55
2023/09/21 12:36:04;;;;;;;1.30;1.20;;;25.30;99.20;;;;;;5052440;28;20306;-47
2023/09/21 12:38:32;;;;;;;1.30;1.20;;;25.40;99.10;;;;;;5082415;28;20194;-56
2023/09/21 12:41:00;;;;;;;1.63;1.50;;;25.50;99.20;;;;;;5068433;28;20241;-50
2023/09/21 12:43:29;;;;;;;2.97;1.60;;;25.60;99.40;;;;;;5078796;28;20193;-58
2023/09/21 12:45:55;;;;;;;2.80;1.52;;;25.90;99.50;;;;;;5081310;28;20275;-49
2023/09/21 12:48:22;;;;;;;1.48;1.33;;;26.00;99.20;;;;;;5060027;28;20749;-57
2023/09/21 12:50:49;;;;;;;2.13;1.23;;;26.00;98.60;;;;;;5081648;28;20185;-51
2023/09/21 12:53:16;;;;;;;2.70;1.55;;;26.00;98.90;;;;;;5050451;28;20181;-53
2023/09/21 12:55:44;;;;;;;4.30;1.38;;;26.10;98.60;;;;;;5073909;28;20228;-55
2023/09/21 12:58:11;;;;;;;2.67;1.50;;;26.20;98.90;;;;;;5071792;28;20809;-58
2023/09/21 13:00:40;;;;;;;2.05;1.30;;;26.10;98.70;;;;;;5080727;28;20204;-55
2023/09/21 13:03:07;;;;;;;2.35;1.35;;;26.00;98.70;;;;;;5051166;28;20213;-49
2023/09/21 13:05:34;;;;;;;3.22;1.20;;;25.90;98.70;;;;;;5072074;28;20221;-55
2023/09/21 13:08:01;;;;;;;1.30;1.20;;;25.80;98.60;;;;;;5039100;28;21739;-58